sensor_id;sensor_type;location;lat;lon;timestamp;pressure;altitude;pressure_sealevel;temperature;humidity
23339;BME280;11841;49.368;20.962;2023-05-22T00:00:05;95979.56;;;9.57;82.60
23339;BME280;11841;49.368;20.962;2023-05-22T00:02:53;95979.56;;;9.50;82.87
23339;BME280;11841;49.368;20.962;2023-05-22T00:05:39;95976.69;;;9.45;82.95
23339;BME280;11841;49.368;20.962;2023-05-22T00:08:26;95971.81;;;9.42;83.47
23339;BME280;11841;49.368;20.962;2023-05-22T00:11:13;95980.38;;;9.38;83.27
23339;BME280;11841;49.368;20.962;2023-05-22T00:13:59;95975.88;;;9.32;83.44
23339;BME280;11841;49.368;20.962;2023-05-22T00:16:44;95971.81;;;9.29;83.35
23339;BME280;11841;49.368;20.962;2023-05-22T00:19:32;95974.25;;;9.24;83.36
23339;BME280;11841;49.368;20.962;2023-05-22T00:22:19;95969.56;;;9.20;83.17
23339;BME280;11841;49.368;20.962;2023-05-22T00:25:05;95971.00;;;9.16;83.08
23339;BME280;11841;49.368;20.962;2023-05-22T00:27:51;95976.28;;;9.09;83.45
23339;BME280;11841;49.368;20.962;2023-05-22T00:30:36;95966.06;;;9.06;83.31
23339;BME280;11841;49.368;20.962;2023-05-22T00:33:22;95965.28;;;8.99;83.22
23339;BME280;11841;49.368;20.962;2023-05-22T00:36:08;95977.88;;;8.97;83.22
23339;BME280;11841;49.368;20.962;2023-05-22T00:38:53;95963.63;;;8.92;83.15
23339;BME280;11841;49.368;20.962;2023-05-22T00:41:38;95971.13;;;8.88;83.45
23339;BME280;11841;49.368;20.962;2023-05-22T00:44:24;95961.97;;;8.84;83.75
23339;BME280;11841;49.368;20.962;2023-05-22T00:47:09;95968.69;;;8.80;83.55
23339;BME280;11841;49.368;20.962;2023-05-22T00:49:54;95966.44;;;8.77;83.72
23339;BME280;11841;49.368;20.962;2023-05-22T00:52:42;95956.22;;;8.74;83.71
23339;BME280;11841;49.368;20.962;2023-05-22T00:55:29;95965.19;;;8.73;83.62
23339;BME280;11841;49.368;20.962;2023-05-22T00:58:18;95965.59;;;8.70;84.03
23339;BME280;11841;49.368;20.962;2023-05-22T01:01:06;95957.03;;;8.68;83.68
23339;BME280;11841;49.368;20.962;2023-05-22T01:03:55;95968.03;;;8.65;83.76
23339;BME280;11841;49.368;20.962;2023-05-22T01:06:41;95961.47;;;8.54;84.43
23339;BME280;11841;49.368;20.962;2023-05-22T01:09:28;95969.59;;;8.53;84.63
23339;BME280;11841;49.368;20.962;2023-05-22T01:12:21;95960.63;;;8.47;84.58
23339;BME280;11841;49.368;20.962;2023-05-22T01:15:16;95960.22;;;8.44;84.42
23339;BME280;11841;49.368;20.962;2023-05-22T01:32:48;95966.34;;;8.17;84.35
23339;BME280;11841;49.368;20.962;2023-05-22T01:35:37;95969.38;;;8.14;84.40
23339;BME280;11841;49.368;20.962;2023-05-22T01:38:23;95965.28;;;8.11;84.46
23339;BME280;11841;49.368;20.962;2023-05-22T01:41:09;95967.91;;;8.05;84.24
23339;BME280;11841;49.368;20.962;2023-05-22T01:43:55;95975.41;;;8.01;84.81
23339;BME280;11841;49.368;20.962;2023-05-22T01:46:40;95971.34;;;7.99;84.39
23339;BME280;11841;49.368;20.962;2023-05-22T01:49:27;95970.91;;;7.95;84.36
23339;BME280;11841;49.368;20.962;2023-05-22T01:52:18;95970.47;;;7.92;84.67
23339;BME280;11841;49.368;20.962;2023-05-22T01:55:18;95971.84;;;7.88;84.77
23339;BME280;11841;49.368;20.962;2023-05-22T01:58:20;95975.91;;;7.84;85.21
23339;BME280;11841;49.368;20.962;2023-05-22T02:01:09;95970.41;;;7.79;84.86
23339;BME280;11841;49.368;20.962;2023-05-22T02:03:56;95968.13;;;7.76;84.66
23339;BME280;11841;49.368;20.962;2023-05-22T02:06:42;95972.19;;;7.72;84.70
23339;BME280;11841;49.368;20.962;2023-05-22T02:09:29;95965.44;;;7.69;84.73
23339;BME280;11841;49.368;20.962;2023-05-22T02:12:19;95963.00;;;7.68;84.56
23339;BME280;11841;49.368;20.962;2023-05-22T02:15:06;95960.75;;;7.65;84.63
23339;BME280;11841;49.368;20.962;2023-05-22T02:17:52;95955.25;;;7.60;85.29
23339;BME280;11841;49.368;20.962;2023-05-22T02:20:38;95959.25;;;7.56;84.80
23339;BME280;11841;49.368;20.962;2023-05-22T02:23:24;95953.75;;;7.51;84.87
23339;BME280;11841;49.368;20.962;2023-05-22T02:26:10;95956.78;;;7.48;85.02
23339;BME280;11841;49.368;20.962;2023-05-22T02:28:55;95960.41;;;7.47;85.04
23339;BME280;11841;49.368;20.962;2023-05-22T02:31:40;95954.97;;;7.48;85.24
23339;BME280;11841;49.368;20.962;2023-05-22T02:34:26;95958.81;;;7.52;84.96
23339;BME280;11841;49.368;20.962;2023-05-22T02:37:11;95957.75;;;7.47;84.98
23339;BME280;11841;49.368;20.962;2023-05-22T02:39:59;95957.50;;;7.42;85.21
23339;BME280;11841;49.368;20.962;2023-05-22T02:42:44;95954.63;;;7.36;85.40
23339;BME280;11841;49.368;20.962;2023-05-22T02:45:31;95955.66;;;7.35;85.48
23339;BME280;11841;49.368;20.962;2023-05-22T02:48:16;95953.78;;;7.29;84.90
23339;BME280;11841;49.368;20.962;2023-05-22T02:51:02;95950.91;;;7.24;85.36
23339;BME280;11841;49.368;20.962;2023-05-22T02:53:54;95958.53;;;7.19;85.42
23339;BME280;11841;49.368;20.962;2023-05-22T02:56:46;95951.84;;;7.17;85.51
23339;BME280;11841;49.368;20.962;2023-05-22T02:59:31;95952.03;;;7.15;85.58
23339;BME280;11841;49.368;20.962;2023-05-22T03:02:24;95948.38;;;7.16;85.78
23339;BME280;11841;49.368;20.962;2023-05-22T03:05:12;95953.28;;;7.19;85.84
23339;BME280;11841;49.368;20.962;2023-05-22T03:08:01;95942.38;;;7.22;85.70
23339;BME280;11841;49.368;20.962;2023-05-22T03:10:47;95950.28;;;7.22;85.70
23339;BME280;11841;49.368;20.962;2023-05-22T03:13:32;95945.00;;;7.22;85.57
23339;BME280;11841;49.368;20.962;2023-05-22T03:16:17;95947.06;;;7.27;85.66
23339;BME280;11841;49.368;20.962;2023-05-22T03:19:11;95947.66;;;7.22;85.58
23339;BME280;11841;49.368;20.962;2023-05-22T03:21:56;95942.72;;;7.19;85.92
23339;BME280;11841;49.368;20.962;2023-05-22T03:24:42;95946.38;;;7.18;85.99
23339;BME280;11841;49.368;20.962;2023-05-22T03:27:27;95941.50;;;7.15;86.31
23339;BME280;11841;49.368;20.962;2023-05-22T03:30:13;95932.94;;;7.13;86.57
23339;BME280;11841;49.368;20.962;2023-05-22T03:32:58;95940.88;;;7.13;86.62
23339;BME280;11841;49.368;20.962;2023-05-22T03:35:44;95945.13;;;7.14;86.82
23339;BME280;11841;49.368;20.962;2023-05-22T03:38:29;95939.50;;;7.17;87.28
23339;BME280;11841;49.368;20.962;2023-05-22T03:41:14;95943.34;;;7.21;87.02
23339;BME280;11841;49.368;20.962;2023-05-22T03:44:02;95940.53;;;7.23;87.37
23339;BME280;11841;49.368;20.962;2023-05-22T03:46:47;95935.69;;;7.26;87.82
23339;BME280;11841;49.368;20.962;2023-05-22T03:49:32;95939.59;;;7.30;87.71
23339;BME280;11841;49.368;20.962;2023-05-22T03:52:17;95938.38;;;7.33;88.06
23339;BME280;11841;49.368;20.962;2023-05-22T03:55:04;95933.19;;;7.40;88.12
23339;BME280;11841;49.368;20.962;2023-05-22T03:57:49;95937.88;;;7.44;88.79
23339;BME280;11841;49.368;20.962;2023-05-22T04:00:34;95933.66;;;7.50;88.71
23339;BME280;11841;49.368;20.962;2023-05-22T04:03:23;95932.44;;;7.52;89.36
23339;BME280;11841;49.368;20.962;2023-05-22T04:06:08;95930.88;;;7.58;89.21
23339;BME280;11841;49.368;20.962;2023-05-22T04:08:54;95931.09;;;7.63;89.42
23339;BME280;11841;49.368;20.962;2023-05-22T04:11:39;95929.31;;;7.70;89.67
23339;BME280;11841;49.368;20.962;2023-05-22T04:14:26;95924.91;;;7.77;90.35
23339;BME280;11841;49.368;20.962;2023-05-22T04:17:11;95927.56;;;7.83;91.04
23339;BME280;11841;49.368;20.962;2023-05-22T04:19:57;95926.97;;;7.88;91.87
23339;BME280;11841;49.368;20.962;2023-05-22T04:22:42;95923.59;;;7.94;92.72
23339;BME280;11841;49.368;20.962;2023-05-22T04:25:29;95924.03;;;8.04;92.20
23339;BME280;11841;49.368;20.962;2023-05-22T04:28:15;95928.53;;;8.10;92.53
23339;BME280;11841;49.368;20.962;2023-05-22T04:31:06;95920.44;;;8.18;92.90
23339;BME280;11841;49.368;20.962;2023-05-22T04:33:51;95917.88;;;8.24;92.37
23339;BME280;11841;49.368;20.962;2023-05-22T04:36:38;95911.59;;;8.32;92.75
23339;BME280;11841;49.368;20.962;2023-05-22T04:39:23;95910.81;;;8.38;92.92
23339;BME280;11841;49.368;20.962;2023-05-22T04:42:13;95912.25;;;8.47;93.04
23339;BME280;11841;49.368;20.962;2023-05-22T04:45:00;95908.81;;;8.53;93.86
23339;BME280;11841;49.368;20.962;2023-05-22T04:47:45;95903.34;;;8.54;94.36
23339;BME280;11841;49.368;20.962;2023-05-22T04:50:30;95901.09;;;8.58;94.59
23339;BME280;11841;49.368;20.962;2023-05-22T04:53:16;95901.31;;;8.63;93.89
23339;BME280;11841;49.368;20.962;2023-05-22T04:56:02;95893.19;;;8.71;94.19
23339;BME280;11841;49.368;20.962;2023-05-22T04:58:47;95895.66;;;8.79;94.25
23339;BME280;11841;49.368;20.962;2023-05-22T05:01:38;95900.16;;;8.85;93.89
23339;BME280;11841;49.368;20.962;2023-05-22T05:04:26;95889.16;;;8.88;93.22
23339;BME280;11841;49.368;20.962;2023-05-22T05:07:11;95900.16;;;8.98;93.05
23339;BME280;11841;49.368;20.962;2023-05-22T05:09:57;95889.19;;;9.08;93.06
23339;BME280;11841;49.368;20.962;2023-05-22T05:12:42;95894.50;;;9.14;92.27
23339;BME280;11841;49.368;20.962;2023-05-22T05:15:28;95892.03;;;9.26;91.80
23339;BME280;11841;49.368;20.962;2023-05-22T05:18:13;95890.00;;;9.34;91.36
23339;BME280;11841;49.368;20.962;2023-05-22T05:20:59;95887.75;;;9.44;91.31
23339;BME280;11841;49.368;20.962;2023-05-22T05:23:44;95891.63;;;9.55;91.37
23339;BME280;11841;49.368;20.962;2023-05-22T05:26:30;95894.44;;;9.66;90.73
23339;BME280;11841;49.368;20.962;2023-05-22T05:29:15;95887.91;;;9.75;90.18
23339;BME280;11841;49.368;20.962;2023-05-22T05:32:00;95885.03;;;9.84;90.60
23339;BME280;11841;49.368;20.962;2023-05-22T05:34:45;95892.13;;;9.96;90.32
23339;BME280;11841;49.368;20.962;2023-05-22T05:37:31;95888.22;;;10.05;90.95
23339;BME280;11841;49.368;20.962;2023-05-22T05:40:16;95886.16;;;10.20;90.87
23339;BME280;11841;49.368;20.962;2023-05-22T05:43:01;95876.31;;;10.34;90.61
23339;BME280;11841;49.368;20.962;2023-05-22T05:45:47;95889.72;;;10.45;89.77
23339;BME280;11841;49.368;20.962;2023-05-22T05:48:32;95878.28;;;10.51;89.67
23339;BME280;11841;49.368;20.962;2023-05-22T05:51:18;95875.56;;;10.64;89.57
23339;BME280;11841;49.368;20.962;2023-05-22T05:54:04;95871.63;;;10.73;89.07
23339;BME280;11841;49.368;20.962;2023-05-22T05:56:50;95877.50;;;10.82;88.46
23339;BME280;11841;49.368;20.962;2023-05-22T05:59:35;95868.66;;;10.88;88.23
23339;BME280;11841;49.368;20.962;2023-05-22T06:02:20;95865.78;;;10.96;88.02
23339;BME280;11841;49.368;20.962;2023-05-22T06:05:06;95865.50;;;11.04;88.15
23339;BME280;11841;49.368;20.962;2023-05-22T06:07:52;95860.53;;;11.14;88.02
23339;BME280;11841;49.368;20.962;2023-05-22T06:10:38;95859.81;;;11.25;87.73
23339;BME280;11841;49.368;20.962;2023-05-22T06:13:24;95848.34;;;11.31;87.56
23339;BME280;11841;49.368;20.962;2023-05-22T06:16:09;95855.47;;;11.55;87.22
23339;BME280;11841;49.368;20.962;2023-05-22T06:18:57;95849.16;;;11.74;85.70
23339;BME280;11841;49.368;20.962;2023-05-22T06:21:42;95844.53;;;11.88;84.74
23339;BME280;11841;49.368;20.962;2023-05-22T06:24:28;95848.44;;;12.03;84.01
23339;BME280;11841;49.368;20.962;2023-05-22T06:27:13;95848.31;;;12.17;82.60
23339;BME280;11841;49.368;20.962;2023-05-22T06:29:59;95853.81;;;12.33;81.63
23339;BME280;11841;49.368;20.962;2023-05-22T06:32:48;95849.72;;;12.49;80.81
23339;BME280;11841;49.368;20.962;2023-05-22T06:35:33;95839.03;;;12.67;80.57
23339;BME280;11841;49.368;20.962;2023-05-22T06:38:19;95845.06;;;12.74;80.10
23339;BME280;11841;49.368;20.962;2023-05-22T06:41:04;95841.19;;;12.88;79.53
23339;BME280;11841;49.368;20.962;2023-05-22T06:43:50;95832.94;;;13.19;78.26
23339;BME280;11841;49.368;20.962;2023-05-22T06:46:35;95824.63;;;13.50;76.81
23339;BME280;11841;49.368;20.962;2023-05-22T06:49:21;95831.75;;;14.07;72.52
23339;BME280;11841;49.368;20.962;2023-05-22T06:52:06;95835.94;;;14.54;69.14
23339;BME280;11841;49.368;20.962;2023-05-22T06:54:51;95832.22;;;14.84;65.88
23339;BME280;11841;49.368;20.962;2023-05-22T06:57:38;95829.50;;;15.12;62.77
23339;BME280;11841;49.368;20.962;2023-05-22T07:00:23;95820.25;;;15.36;61.93
23339;BME280;11841;49.368;20.962;2023-05-22T07:03:09;95827.41;;;15.63;58.68
23339;BME280;11841;49.368;20.962;2023-05-22T07:05:56;95836.97;;;15.76;59.17
23339;BME280;11841;49.368;20.962;2023-05-22T07:08:43;95822.81;;;15.97;56.62
23339;BME280;11841;49.368;20.962;2023-05-22T07:11:28;95822.41;;;16.05;55.85
23339;BME280;11841;49.368;20.962;2023-05-22T07:14:14;95816.53;;;16.08;58.75
23339;BME280;11841;49.368;20.962;2023-05-22T07:16:59;95819.53;;;16.12;57.09
23339;BME280;11841;49.368;20.962;2023-05-22T07:19:45;95825.56;;;16.24;56.80
23339;BME280;11841;49.368;20.962;2023-05-22T07:22:30;95827.88;;;16.37;53.20
23339;BME280;11841;49.368;20.962;2023-05-22T07:25:15;95838.47;;;16.48;54.63
23339;BME280;11841;49.368;20.962;2023-05-22T07:28:01;95828.44;;;16.60;54.54
23339;BME280;11841;49.368;20.962;2023-05-22T07:30:50;95827.00;;;16.74;53.53
23339;BME280;11841;49.368;20.962;2023-05-22T07:33:35;95821.69;;;16.79;53.61
23339;BME280;11841;49.368;20.962;2023-05-22T07:36:21;95823.34;;;16.85;54.21
23339;BME280;11841;49.368;20.962;2023-05-22T07:39:06;95826.84;;;16.86;53.13
23339;BME280;11841;49.368;20.962;2023-05-22T07:41:54;95816.44;;;16.89;53.24
23339;BME280;11841;49.368;20.962;2023-05-22T07:44:41;95815.97;;;16.98;51.49
23339;BME280;11841;49.368;20.962;2023-05-22T07:47:27;95810.19;;;17.11;51.01
23339;BME280;11841;49.368;20.962;2023-05-22T07:50:12;95807.59;;;17.21;50.33
23339;BME280;11841;49.368;20.962;2023-05-22T07:52:57;95810.88;;;17.28;50.48
23339;BME280;11841;49.368;20.962;2023-05-22T07:55:43;95810.59;;;17.29;50.93
23339;BME280;11841;49.368;20.962;2023-05-22T07:58:29;95817.38;;;17.37;51.06
23339;BME280;11841;49.368;20.962;2023-05-22T08:01:14;95814.28;;;17.50;50.49
23339;BME280;11841;49.368;20.962;2023-05-22T08:04:03;95812.97;;;17.52;50.26
23339;BME280;11841;49.368;20.962;2023-05-22T08:06:49;95810.06;;;17.59;49.60
23339;BME280;11841;49.368;20.962;2023-05-22T08:09:35;95812.78;;;17.64;49.74
23339;BME280;11841;49.368;20.962;2023-05-22T08:12:21;95811.22;;;17.68;50.62
23339;BME280;11841;49.368;20.962;2023-05-22T08:15:07;95809.09;;;17.75;51.57
23339;BME280;11841;49.368;20.962;2023-05-22T08:17:52;95810.72;;;17.76;51.24
23339;BME280;11841;49.368;20.962;2023-05-22T08:20:41;95808.38;;;17.84;49.05
23339;BME280;11841;49.368;20.962;2023-05-22T08:23:27;95810.22;;;17.84;48.69
23339;BME280;11841;49.368;20.962;2023-05-22T08:26:13;95811.59;;;17.86;48.94
23339;BME280;11841;49.368;20.962;2023-05-22T08:28:59;95801.72;;;17.97;49.02
23339;BME280;11841;49.368;20.962;2023-05-22T08:31:45;95803.41;;;18.08;49.67
23339;BME280;11841;49.368;20.962;2023-05-22T08:34:30;95807.72;;;18.14;50.25
23339;BME280;11841;49.368;20.962;2023-05-22T08:37:17;95802.91;;;18.21;50.00
23339;BME280;11841;49.368;20.962;2023-05-22T08:40:02;95793.28;;;18.25;48.54
23339;BME280;11841;49.368;20.962;2023-05-22T08:42:48;95808.84;;;18.28;49.15
23339;BME280;11841;49.368;20.962;2023-05-22T08:45:35;95789.50;;;18.26;47.16
23339;BME280;11841;49.368;20.962;2023-05-22T08:48:22;95793.84;;;18.27;48.85
23339;BME280;11841;49.368;20.962;2023-05-22T08:51:11;95795.75;;;18.37;47.10
23339;BME280;11841;49.368;20.962;2023-05-22T08:53:57;95797.59;;;18.31;47.93
23339;BME280;11841;49.368;20.962;2023-05-22T08:56:44;95790.63;;;18.35;50.17
23339;BME280;11841;49.368;20.962;2023-05-22T08:59:42;95793.38;;;18.40;49.35
23339;BME280;11841;49.368;20.962;2023-05-22T09:02:28;95796.91;;;18.51;48.02
23339;BME280;11841;49.368;20.962;2023-05-22T09:05:14;95785.91;;;18.57;46.72
23339;BME280;11841;49.368;20.962;2023-05-22T09:08:02;95789.13;;;18.54;46.82
23339;BME280;11841;49.368;20.962;2023-05-22T09:11:03;95793.69;;;18.59;47.46
23339;BME280;11841;49.368;20.962;2023-05-22T09:13:48;95796.44;;;18.79;49.49
23339;BME280;11841;49.368;20.962;2023-05-22T09:16:50;95791.34;;;18.82;49.25
23339;BME280;11841;49.368;20.962;2023-05-22T09:19:37;95794.56;;;18.89;50.45
23339;BME280;11841;49.368;20.962;2023-05-22T09:22:36;95793.00;;;18.98;51.76
23339;BME280;11841;49.368;20.962;2023-05-22T09:25:22;95784.94;;;19.08;46.63
23339;BME280;11841;49.368;20.962;2023-05-22T09:28:07;95785.72;;;19.04;47.53
23339;BME280;11841;49.368;20.962;2023-05-22T09:30:54;95785.47;;;19.10;47.90
23339;BME280;11841;49.368;20.962;2023-05-22T09:33:42;95771.22;;;19.15;48.20
23339;BME280;11841;49.368;20.962;2023-05-22T09:36:31;95775.25;;;19.17;48.45
23339;BME280;11841;49.368;20.962;2023-05-22T09:39:17;95768.25;;;19.26;48.92
23339;BME280;11841;49.368;20.962;2023-05-22T09:42:03;95775.31;;;19.33;49.97
23339;BME280;11841;49.368;20.962;2023-05-22T09:44:50;95774.47;;;19.37;46.73
23339;BME280;11841;49.368;20.962;2023-05-22T09:47:35;95762.88;;;19.26;45.46
23339;BME280;11841;49.368;20.962;2023-05-22T09:50:21;95771.50;;;19.18;45.84
23339;BME280;11841;49.368;20.962;2023-05-22T09:53:07;95764.25;;;19.24;46.46
23339;BME280;11841;49.368;20.962;2023-05-22T09:55:58;95762.63;;;19.28;47.92
23339;BME280;11841;49.368;20.962;2023-05-22T09:58:44;95765.59;;;19.47;47.27
23339;BME280;11841;49.368;20.962;2023-05-22T10:01:32;95766.66;;;19.51;46.01
23339;BME280;11841;49.368;20.962;2023-05-22T10:04:20;95760.47;;;19.45;46.75
23339;BME280;11841;49.368;20.962;2023-05-22T10:07:08;95758.88;;;19.49;45.97
23339;BME280;11841;49.368;20.962;2023-05-22T10:10:03;95762.38;;;19.55;45.96
23339;BME280;11841;49.368;20.962;2023-05-22T10:13:03;95763.44;;;19.59;45.99
23339;BME280;11841;49.368;20.962;2023-05-22T10:15:48;95756.44;;;19.63;46.85
23339;BME280;11841;49.368;20.962;2023-05-22T10:18:35;95756.97;;;19.70;46.24
23339;BME280;11841;49.368;20.962;2023-05-22T10:21:21;95751.84;;;19.73;46.56
23339;BME280;11841;49.368;20.962;2023-05-22T10:24:08;95741.06;;;19.83;46.79
23339;BME280;11841;49.368;20.962;2023-05-22T10:26:54;95741.81;;;19.99;48.03
23339;BME280;11841;49.368;20.962;2023-05-22T10:29:46;95738.00;;;20.10;47.91
23339;BME280;11841;49.368;20.962;2023-05-22T10:32:44;95749.28;;;20.27;49.07
23339;BME280;11841;49.368;20.962;2023-05-22T10:35:45;95748.19;;;20.28;46.81
23339;BME280;11841;49.368;20.962;2023-05-22T10:41:42;95741.13;;;20.42;46.14
23339;BME280;11841;49.368;20.962;2023-05-22T10:44:27;95729.25;;;20.48;48.78
23339;BME280;11841;49.368;20.962;2023-05-22T10:47:13;95727.06;;;20.50;44.97
23339;BME280;11841;49.368;20.962;2023-05-22T10:50:09;95720.88;;;20.50;45.66
23339;BME280;11841;49.368;20.962;2023-05-22T10:53:32;95721.91;;;20.59;46.21
23339;BME280;11841;49.368;20.962;2023-05-22T10:56:18;95718.06;;;20.70;45.15
23339;BME280;11841;49.368;20.962;2023-05-22T10:59:04;95718.81;;;20.80;46.76
23339;BME280;11841;49.368;20.962;2023-05-22T11:01:59;95711.97;;;20.93;47.39
23339;BME280;11841;49.368;20.962;2023-05-22T11:04:44;95710.63;;;20.95;45.90
23339;BME280;11841;49.368;20.962;2023-05-22T11:07:38;95712.22;;;20.96;45.12
23339;BME280;11841;49.368;20.962;2023-05-22T11:10:55;95715.25;;;20.85;43.39
23339;BME280;11841;49.368;20.962;2023-05-22T11:13:50;95710.13;;;20.88;45.98
23339;BME280;11841;49.368;20.962;2023-05-22T11:16:37;95699.84;;;20.95;46.34
23339;BME280;11841;49.368;20.962;2023-05-22T11:19:23;95704.69;;;20.98;44.49
23339;BME280;11841;49.368;20.962;2023-05-22T11:22:08;95699.81;;;21.00;44.68
23339;BME280;11841;49.368;20.962;2023-05-22T11:24:54;95694.72;;;20.99;44.59
23339;BME280;11841;49.368;20.962;2023-05-22T11:27:39;95703.03;;;21.02;45.29
23339;BME280;11841;49.368;20.962;2023-05-22T11:30:26;95689.31;;;20.99;43.52
23339;BME280;11841;49.368;20.962;2023-05-22T11:33:13;95689.56;;;20.97;44.09
23339;BME280;11841;49.368;20.962;2023-05-22T11:35:59;95689.56;;;21.02;43.92
23339;BME280;11841;49.368;20.962;2023-05-22T11:38:45;95685.78;;;21.03;43.91
23339;BME280;11841;49.368;20.962;2023-05-22T11:41:32;95689.00;;;21.05;44.28
23339;BME280;11841;49.368;20.962;2023-05-22T11:44:18;95693.25;;;21.11;45.16
23339;BME280;11841;49.368;20.962;2023-05-22T11:47:04;95691.78;;;21.24;45.14
23339;BME280;11841;49.368;20.962;2023-05-22T11:49:49;95695.25;;;21.29;46.00
23339;BME280;11841;49.368;20.962;2023-05-22T11:52:36;95695.94;;;21.40;47.16
23339;BME280;11841;49.368;20.962;2023-05-22T11:55:22;95699.41;;;21.45;46.78
23339;BME280;11841;49.368;20.962;2023-05-22T11:58:08;95697.72;;;21.54;45.52
23339;BME280;11841;49.368;20.962;2023-05-22T12:00:59;95693.00;;;21.65;46.83
23339;BME280;11841;49.368;20.962;2023-05-22T12:03:45;95691.53;;;21.78;45.78
23339;BME280;11841;49.368;20.962;2023-05-22T12:06:31;95696.88;;;21.83;44.50
23339;BME280;11841;49.368;20.962;2023-05-22T12:09:17;95686.69;;;21.75;42.81
23339;BME280;11841;49.368;20.962;2023-05-22T12:12:03;95692.28;;;21.83;44.58
23339;BME280;11841;49.368;20.962;2023-05-22T12:14:48;95692.47;;;21.92;45.14
23339;BME280;11841;49.368;20.962;2023-05-22T12:17:35;95688.53;;;22.03;46.57
23339;BME280;11841;49.368;20.962;2023-05-22T12:20:21;95686.28;;;22.10;43.62
23339;BME280;11841;49.368;20.962;2023-05-22T12:23:10;95685.91;;;21.98;43.13
23339;BME280;11841;49.368;20.962;2023-05-22T12:25:57;95684.84;;;21.99;44.19
23339;BME280;11841;49.368;20.962;2023-05-22T12:28:43;95681.09;;;21.95;43.83
23339;BME280;11841;49.368;20.962;2023-05-22T12:31:35;95675.22;;;21.88;44.75
23339;BME280;11841;49.368;20.962;2023-05-22T12:34:22;95676.28;;;21.92;43.75
23339;BME280;11841;49.368;20.962;2023-05-22T12:37:23;95668.09;;;21.73;43.40
23339;BME280;11841;49.368;20.962;2023-05-22T12:40:12;95672.22;;;21.66;44.52
23339;BME280;11841;49.368;20.962;2023-05-22T12:42:57;95669.00;;;21.63;44.94
23339;BME280;11841;49.368;20.962;2023-05-22T12:45:43;95676.75;;;21.46;44.61
23339;BME280;11841;49.368;20.962;2023-05-22T12:48:28;95676.09;;;21.31;44.98
23339;BME280;11841;49.368;20.962;2023-05-22T12:51:14;95670.69;;;21.31;46.09
23339;BME280;11841;49.368;20.962;2023-05-22T12:54:02;95676.97;;;21.21;45.57
23339;BME280;11841;49.368;20.962;2023-05-22T12:56:48;95680.00;;;21.15;45.92
23339;BME280;11841;49.368;20.962;2023-05-22T12:59:33;95675.38;;;21.20;46.13
23339;BME280;11841;49.368;20.962;2023-05-22T13:02:18;95680.78;;;21.20;46.02
23339;BME280;11841;49.368;20.962;2023-05-22T13:05:04;95679.19;;;21.19;46.36
23339;BME280;11841;49.368;20.962;2023-05-22T13:07:50;95678.06;;;21.20;47.30
23339;BME280;11841;49.368;20.962;2023-05-22T13:10:35;95677.84;;;21.17;46.54
23339;BME280;11841;49.368;20.962;2023-05-22T13:13:22;95679.28;;;21.04;47.23
23339;BME280;11841;49.368;20.962;2023-05-22T13:16:08;95676.00;;;21.12;47.07
23339;BME280;11841;49.368;20.962;2023-05-22T13:18:54;95664.69;;;21.10;46.14
23339;BME280;11841;49.368;20.962;2023-05-22T13:21:39;95667.44;;;21.05;46.55
23339;BME280;11841;49.368;20.962;2023-05-22T13:24:24;95666.25;;;21.16;47.07
23339;BME280;11841;49.368;20.962;2023-05-22T13:27:10;95672.97;;;21.19;46.11
23339;BME280;11841;49.368;20.962;2023-05-22T13:29:55;95669.50;;;21.13;46.39
23339;BME280;11841;49.368;20.962;2023-05-22T13:32:40;95664.66;;;21.15;46.97
23339;BME280;11841;49.368;20.962;2023-05-22T13:35:26;95654.16;;;21.14;46.19
23339;BME280;11841;49.368;20.962;2023-05-22T13:38:11;95663.53;;;21.16;46.02
23339;BME280;11841;49.368;20.962;2023-05-22T13:40:57;95659.22;;;21.20;46.65
23339;BME280;11841;49.368;20.962;2023-05-22T13:43:42;95665.84;;;21.33;46.02
23339;BME280;11841;49.368;20.962;2023-05-22T13:46:27;95654.88;;;21.48;46.69
23339;BME280;11841;49.368;20.962;2023-05-22T13:49:13;95655.06;;;21.56;45.94
23339;BME280;11841;49.368;20.962;2023-05-22T13:51:58;95657.47;;;21.58;45.89
23339;BME280;11841;49.368;20.962;2023-05-22T13:54:43;95638.81;;;21.62;45.41
23339;BME280;11841;49.368;20.962;2023-05-22T13:57:29;95645.22;;;21.66;45.80
23339;BME280;11841;49.368;20.962;2023-05-22T14:00:14;95649.63;;;21.62;45.16
23339;BME280;11841;49.368;20.962;2023-05-22T14:03:00;95638.31;;;21.59;45.63
23339;BME280;11841;49.368;20.962;2023-05-22T14:05:45;95647.41;;;21.63;45.48
23339;BME280;11841;49.368;20.962;2023-05-22T14:08:30;95646.34;;;21.65;45.90
23339;BME280;11841;49.368;20.962;2023-05-22T14:11:15;95630.91;;;21.70;47.22
23339;BME280;11841;49.368;20.962;2023-05-22T14:14:01;95639.91;;;21.84;47.45
23339;BME280;11841;49.368;20.962;2023-05-22T14:16:46;95639.47;;;22.01;46.36
23339;BME280;11841;49.368;20.962;2023-05-22T14:19:31;95634.69;;;21.93;46.24
23339;BME280;11841;49.368;20.962;2023-05-22T14:22:17;95633.66;;;21.89;45.28
23339;BME280;11841;49.368;20.962;2023-05-22T14:25:02;95640.06;;;21.69;45.13
23339;BME280;11841;49.368;20.962;2023-05-22T14:27:48;95626.41;;;21.60;45.75
23339;BME280;11841;49.368;20.962;2023-05-22T14:30:33;95628.91;;;21.76;47.07
23339;BME280;11841;49.368;20.962;2023-05-22T14:33:18;95639.28;;;21.92;46.56
23339;BME280;11841;49.368;20.962;2023-05-22T14:36:04;95628.44;;;21.97;45.90
23339;BME280;11841;49.368;20.962;2023-05-22T14:38:49;95623.09;;;21.92;46.08
23339;BME280;11841;49.368;20.962;2023-05-22T14:41:35;95621.31;;;21.83;46.07
23339;BME280;11841;49.368;20.962;2023-05-22T14:44:20;95628.75;;;21.91;45.17
23339;BME280;11841;49.368;20.962;2023-05-22T14:47:08;95624.81;;;21.83;45.44
23339;BME280;11841;49.368;20.962;2023-05-22T14:49:53;95619.66;;;21.87;45.34
23339;BME280;11841;49.368;20.962;2023-05-22T14:52:47;95621.47;;;21.91;46.47